sensor_id;sensor_type;location;lat;lon;timestamp;P1;durP1;ratioP1;P2;durP2;ratioP2
4636;SDS011;2331;48.806;9.140;2022-09-12T00:01:07;5.70;;;4.57;;
4636;SDS011;2331;48.806;9.140;2022-09-12T00:03:35;7.85;;;4.32;;
4636;SDS011;2331;48.806;9.140;2022-09-12T00:06:06;11.48;;;4.97;;
4636;SDS011;2331;48.806;9.140;2022-09-12T00:08:35;6.78;;;4.05;;
4636;SDS011;2331;48.806;9.140;2022-09-12T00:11:09;5.60;;;4.57;;
4636;SDS011;2331;48.806;9.140;2022-09-12T00:13:37;8.18;;;4.53;;
4636;SDS011;2331;48.806;9.140;2022-09-12T00:16:05;7.85;;;5.20;;
4636;SDS011;2331;48.806;9.140;2022-09-12T00:18:32;6.03;;;4.97;;
4636;SDS011;2331;48.806;9.140;2022-09-12T00:21:00;7.85;;;4.53;;
4636;SDS011;2331;48.806;9.140;2022-09-12T00:23:28;5.15;;;4.63;;
4636;SDS011;2331;48.806;9.140;2022-09-12T00:25:56;6.60;;;4.50;;
4636;SDS011;2331;48.806;9.140;2022-09-12T00:28:23;7.25;;;5.20;;
4636;SDS011;2331;48.806;9.140;2022-09-12T00:30:51;5.20;;;4.35;;
4636;SDS011;2331;48.806;9.140;2022-09-12T00:33:17;6.32;;;5.15;;
4636;SDS011;2331;48.806;9.140;2022-09-12T00:35:45;11.32;;;5.15;;
4636;SDS011;2331;48.806;9.140;2022-09-12T00:38:12;6.25;;;4.65;;
4636;SDS011;2331;48.806;9.140;2022-09-12T00:40:40;7.78;;;5.10;;
4636;SDS011;2331;48.806;9.140;2022-09-12T00:43:10;9.55;;;6.47;;
4636;SDS011;2331;48.806;9.140;2022-09-12T00:45:40;9.98;;;6.05;;
4636;SDS011;2331;48.806;9.140;2022-09-12T00:48:11;7.45;;;5.50;;
4636;SDS011;2331;48.806;9.140;2022-09-12T00:50:46;7.85;;;6.10;;
4636;SDS011;2331;48.806;9.140;2022-09-12T00:53:14;7.15;;;5.45;;
4636;SDS011;2331;48.806;9.140;2022-09-12T00:55:42;6.95;;;5.10;;
4636;SDS011;2331;48.806;9.140;2022-09-12T00:58:16;6.90;;;4.95;;
4636;SDS011;2331;48.806;9.140;2022-09-12T01:00:47;10.85;;;5.10;;
4636;SDS011;2331;48.806;9.140;2022-09-12T01:03:15;7.45;;;5.03;;
4636;SDS011;2331;48.806;9.140;2022-09-12T01:05:48;5.22;;;4.57;;
4636;SDS011;2331;48.806;9.140;2022-09-12T01:08:24;6.68;;;5.38;;
4636;SDS011;2331;48.806;9.140;2022-09-12T01:10:52;5.80;;;4.78;;
4636;SDS011;2331;48.806;9.140;2022-09-12T01:13:22;6.03;;;5.20;;
4636;SDS011;2331;48.806;9.140;2022-09-12T01:15:48;6.22;;;5.18;;
4636;SDS011;2331;48.806;9.140;2022-09-12T01:18:18;7.25;;;5.30;;
4636;SDS011;2331;48.806;9.140;2022-09-12T01:20:52;14.25;;;5.97;;
4636;SDS011;2331;48.806;9.140;2022-09-12T01:23:45;8.02;;;5.68;;
4636;SDS011;2331;48.806;9.140;2022-09-12T01:36:14;12.13;;;5.80;;
4636;SDS011;2331;48.806;9.140;2022-09-12T01:38:55;9.05;;;5.50;;
4636;SDS011;2331;48.806;9.140;2022-09-12T01:41:25;6.53;;;5.25;;
4636;SDS011;2331;48.806;9.140;2022-09-12T01:43:57;12.52;;;5.82;;
4636;SDS011;2331;48.806;9.140;2022-09-12T01:46:30;11.13;;;6.00;;
4636;SDS011;2331;48.806;9.140;2022-09-12T01:49:06;7.18;;;5.15;;
4636;SDS011;2331;48.806;9.140;2022-09-12T01:51:42;7.85;;;5.20;;
4636;SDS011;2331;48.806;9.140;2022-09-12T01:54:18;7.78;;;5.22;;
4636;SDS011;2331;48.806;9.140;2022-09-12T01:56:50;7.45;;;4.85;;
4636;SDS011;2331;48.806;9.140;2022-09-12T01:59:22;9.10;;;4.82;;
4636;SDS011;2331;48.806;9.140;2022-09-12T02:01:54;8.07;;;5.30;;
4636;SDS011;2331;48.806;9.140;2022-09-12T02:04:26;7.60;;;4.97;;
4636;SDS011;2331;48.806;9.140;2022-09-12T02:06:57;9.70;;;5.80;;
4636;SDS011;2331;48.806;9.140;2022-09-12T02:09:27;7.18;;;5.28;;
4636;SDS011;2331;48.806;9.140;2022-09-12T02:11:57;8.63;;;5.55;;
4636;SDS011;2331;48.806;9.140;2022-09-12T02:14:26;6.85;;;5.43;;
4636;SDS011;2331;48.806;9.140;2022-09-12T02:16:57;9.52;;;5.72;;
4636;SDS011;2331;48.806;9.140;2022-09-12T02:19:27;7.22;;;5.35;;
4636;SDS011;2331;48.806;9.140;2022-09-12T02:21:59;7.90;;;5.13;;
4636;SDS011;2331;48.806;9.140;2022-09-12T02:24:30;7.85;;;5.70;;
4636;SDS011;2331;48.806;9.140;2022-09-12T02:27:02;9.70;;;5.28;;
4636;SDS011;2331;48.806;9.140;2022-09-12T02:29:31;10.18;;;5.20;;
4636;SDS011;2331;48.806;9.140;2022-09-12T02:31:59;6.85;;;5.25;;
4636;SDS011;2331;48.806;9.140;2022-09-12T02:34:31;8.05;;;5.22;;
4636;SDS011;2331;48.806;9.140;2022-09-12T02:37:10;9.50;;;5.57;;
4636;SDS011;2331;48.806;9.140;2022-09-12T02:39:43;13.07;;;5.88;;
4636;SDS011;2331;48.806;9.140;2022-09-12T02:42:11;6.35;;;5.45;;
4636;SDS011;2331;48.806;9.140;2022-09-12T02:44:38;11.73;;;5.40;;
4636;SDS011;2331;48.806;9.140;2022-09-12T02:47:07;7.63;;;6.03;;
4636;SDS011;2331;48.806;9.140;2022-09-12T02:49:39;6.68;;;4.90;;
4636;SDS011;2331;48.806;9.140;2022-09-12T02:52:07;10.18;;;6.05;;
4636;SDS011;2331;48.806;9.140;2022-09-12T02:54:34;9.20;;;6.05;;
4636;SDS011;2331;48.806;9.140;2022-09-12T02:57:01;7.35;;;5.43;;
4636;SDS011;2331;48.806;9.140;2022-09-12T02:59:29;6.55;;;5.13;;
4636;SDS011;2331;48.806;9.140;2022-09-12T03:02:12;10.20;;;5.53;;
4636;SDS011;2331;48.806;9.140;2022-09-12T03:04:56;10.75;;;5.88;;
4636;SDS011;2331;48.806;9.140;2022-09-12T03:07:45;6.85;;;5.55;;
4636;SDS011;2331;48.806;9.140;2022-09-12T03:10:44;8.18;;;5.22;;
4636;SDS011;2331;48.806;9.140;2022-09-12T03:13:21;8.50;;;5.20;;
4636;SDS011;2331;48.806;9.140;2022-09-12T03:15:54;6.45;;;5.15;;
4636;SDS011;2331;48.806;9.140;2022-09-12T03:18:32;8.32;;;5.50;;
4636;SDS011;2331;48.806;9.140;2022-09-12T03:21:13;7.43;;;5.20;;
4636;SDS011;2331;48.806;9.140;2022-09-12T03:23:50;10.13;;;4.93;;
4636;SDS011;2331;48.806;9.140;2022-09-12T03:26:29;8.23;;;5.10;;
4636;SDS011;2331;48.806;9.140;2022-09-12T03:29:00;5.00;;;4.45;;
4636;SDS011;2331;48.806;9.140;2022-09-12T03:31:30;6.10;;;5.22;;
4636;SDS011;2331;48.806;9.140;2022-09-12T03:33:58;8.13;;;5.25;;
4636;SDS011;2331;48.806;9.140;2022-09-12T03:36:27;9.32;;;5.50;;
4636;SDS011;2331;48.806;9.140;2022-09-12T03:38:56;12.43;;;5.60;;
4636;SDS011;2331;48.806;9.140;2022-09-12T03:41:23;9.20;;;4.93;;
4636;SDS011;2331;48.806;9.140;2022-09-12T03:43:49;7.43;;;5.50;;
4636;SDS011;2331;48.806;9.140;2022-09-12T03:46:16;9.23;;;5.85;;
4636;SDS011;2331;48.806;9.140;2022-09-12T03:48:43;8.60;;;5.60;;
4636;SDS011;2331;48.806;9.140;2022-09-12T03:51:09;8.50;;;5.53;;
4636;SDS011;2331;48.806;9.140;2022-09-12T03:53:36;12.23;;;5.50;;
4636;SDS011;2331;48.806;9.140;2022-09-12T03:56:08;9.35;;;5.00;;
4636;SDS011;2331;48.806;9.140;2022-09-12T03:58:36;8.27;;;5.10;;
4636;SDS011;2331;48.806;9.140;2022-09-12T04:01:06;8.70;;;5.25;;
4636;SDS011;2331;48.806;9.140;2022-09-12T04:03:36;6.65;;;5.53;;
4636;SDS011;2331;48.806;9.140;2022-09-12T04:06:04;12.05;;;5.78;;
4636;SDS011;2331;48.806;9.140;2022-09-12T04:08:31;7.82;;;5.45;;
4636;SDS011;2331;48.806;9.140;2022-09-12T04:11:01;11.38;;;5.60;;
4636;SDS011;2331;48.806;9.140;2022-09-12T04:13:30;5.88;;;5.28;;
4636;SDS011;2331;48.806;9.140;2022-09-12T04:15:57;8.35;;;5.43;;
4636;SDS011;2331;48.806;9.140;2022-09-12T04:18:25;6.15;;;5.30;;
4636;SDS011;2331;48.806;9.140;2022-09-12T04:20:52;6.22;;;5.47;;
4636;SDS011;2331;48.806;9.140;2022-09-12T04:23:19;8.02;;;5.50;;
4636;SDS011;2331;48.806;9.140;2022-09-12T04:25:52;7.15;;;5.97;;
4636;SDS011;2331;48.806;9.140;2022-09-12T04:28:19;7.80;;;5.35;;
4636;SDS011;2331;48.806;9.140;2022-09-12T04:30:47;6.85;;;5.32;;
4636;SDS011;2331;48.806;9.140;2022-09-12T04:33:14;9.02;;;5.45;;
4636;SDS011;2331;48.806;9.140;2022-09-12T04:35:41;7.63;;;5.78;;
4636;SDS011;2331;48.806;9.140;2022-09-12T04:38:09;6.95;;;5.22;;
4636;SDS011;2331;48.806;9.140;2022-09-12T04:40:36;8.30;;;4.82;;
4636;SDS011;2331;48.806;9.140;2022-09-12T04:43:03;7.32;;;5.15;;
4636;SDS011;2331;48.806;9.140;2022-09-12T04:45:30;9.30;;;4.70;;
4636;SDS011;2331;48.806;9.140;2022-09-12T04:47:58;5.60;;;4.45;;
4636;SDS011;2331;48.806;9.140;2022-09-12T04:50:25;8.02;;;4.90;;
4636;SDS011;2331;48.806;9.140;2022-09-12T04:52:52;6.20;;;4.88;;
4636;SDS011;2331;48.806;9.140;2022-09-12T04:55:20;7.75;;;4.70;;
4636;SDS011;2331;48.806;9.140;2022-09-12T04:57:49;8.77;;;4.20;;
4636;SDS011;2331;48.806;9.140;2022-09-12T05:00:16;9.20;;;5.32;;
4636;SDS011;2331;48.806;9.140;2022-09-12T05:02:43;8.05;;;4.70;;
4636;SDS011;2331;48.806;9.140;2022-09-12T05:05:11;6.10;;;4.97;;
4636;SDS011;2331;48.806;9.140;2022-09-12T05:07:38;7.60;;;4.70;;
4636;SDS011;2331;48.806;9.140;2022-09-12T05:10:05;5.63;;;4.60;;
4636;SDS011;2331;48.806;9.140;2022-09-12T05:12:32;8.10;;;4.47;;
4636;SDS011;2331;48.806;9.140;2022-09-12T05:14:59;7.60;;;4.65;;
4636;SDS011;2331;48.806;9.140;2022-09-12T05:17:27;5.20;;;4.10;;
4636;SDS011;2331;48.806;9.140;2022-09-12T05:19:54;7.43;;;4.50;;
4636;SDS011;2331;48.806;9.140;2022-09-12T05:22:23;7.13;;;5.00;;
4636;SDS011;2331;48.806;9.140;2022-09-12T05:24:49;6.88;;;4.70;;
4636;SDS011;2331;48.806;9.140;2022-09-12T05:27:16;6.70;;;4.80;;
4636;SDS011;2331;48.806;9.140;2022-09-12T05:29:44;7.63;;;5.00;;
4636;SDS011;2331;48.806;9.140;2022-09-12T05:32:10;7.72;;;5.60;;
4636;SDS011;2331;48.806;9.140;2022-09-12T05:34:37;7.18;;;5.35;;
4636;SDS011;2331;48.806;9.140;2022-09-12T05:37:05;6.25;;;5.00;;
4636;SDS011;2331;48.806;9.140;2022-09-12T05:39:33;8.30;;;6.30;;
4636;SDS011;2331;48.806;9.140;2022-09-12T05:42:00;8.30;;;6.10;;
4636;SDS011;2331;48.806;9.140;2022-09-12T05:44:27;7.85;;;5.75;;
4636;SDS011;2331;48.806;9.140;2022-09-12T05:46:54;8.95;;;6.70;;
4636;SDS011;2331;48.806;9.140;2022-09-12T05:49:21;7.28;;;6.35;;
4636;SDS011;2331;48.806;9.140;2022-09-12T05:51:48;8.70;;;6.68;;
4636;SDS011;2331;48.806;9.140;2022-09-12T05:54:16;8.27;;;6.80;;
4636;SDS011;2331;48.806;9.140;2022-09-12T05:56:46;8.55;;;6.93;;
4636;SDS011;2331;48.806;9.140;2022-09-12T05:59:14;8.63;;;6.75;;
4636;SDS011;2331;48.806;9.140;2022-09-12T06:01:42;9.77;;;7.30;;
4636;SDS011;2331;48.806;9.140;2022-09-12T06:04:09;7.22;;;6.43;;
4636;SDS011;2331;48.806;9.140;2022-09-12T06:06:38;10.98;;;7.80;;
4636;SDS011;2331;48.806;9.140;2022-09-12T06:09:07;12.02;;;8.50;;
4636;SDS011;2331;48.806;9.140;2022-09-12T06:11:35;10.00;;;7.45;;
4636;SDS011;2331;48.806;9.140;2022-09-12T06:14:06;10.02;;;8.05;;
4636;SDS011;2331;48.806;9.140;2022-09-12T06:16:34;11.27;;;7.70;;
4636;SDS011;2331;48.806;9.140;2022-09-12T06:19:02;18.63;;;8.45;;
4636;SDS011;2331;48.806;9.140;2022-09-12T06:21:31;11.30;;;8.45;;
4636;SDS011;2331;48.806;9.140;2022-09-12T06:23:59;13.38;;;8.90;;
4636;SDS011;2331;48.806;9.140;2022-09-12T06:26:27;12.52;;;7.95;;
4636;SDS011;2331;48.806;9.140;2022-09-12T06:28:55;11.50;;;8.43;;
4636;SDS011;2331;48.806;9.140;2022-09-12T06:31:25;11.45;;;9.25;;
4636;SDS011;2331;48.806;9.140;2022-09-12T06:33:54;11.15;;;8.50;;
4636;SDS011;2331;48.806;9.140;2022-09-12T06:36:23;12.65;;;8.95;;
4636;SDS011;2331;48.806;9.140;2022-09-12T06:38:54;11.45;;;8.73;;
4636;SDS011;2331;48.806;9.140;2022-09-12T06:41:22;12.05;;;9.00;;
4636;SDS011;2331;48.806;9.140;2022-09-12T06:43:50;14.98;;;9.48;;
4636;SDS011;2331;48.806;9.140;2022-09-12T06:46:17;12.27;;;9.32;;
4636;SDS011;2331;48.806;9.140;2022-09-12T06:48:45;14.23;;;9.60;;
4636;SDS011;2331;48.806;9.140;2022-09-12T06:51:13;17.02;;;8.85;;
4636;SDS011;2331;48.806;9.140;2022-09-12T06:53:41;16.02;;;10.85;;
4636;SDS011;2331;48.806;9.140;2022-09-12T06:56:09;14.35;;;11.07;;
4636;SDS011;2331;48.806;9.140;2022-09-12T06:58:37;17.38;;;11.65;;
4636;SDS011;2331;48.806;9.140;2022-09-12T07:01:05;19.80;;;11.50;;
4636;SDS011;2331;48.806;9.140;2022-09-12T07:03:34;14.70;;;10.38;;
4636;SDS011;2331;48.806;9.140;2022-09-12T07:06:04;12.93;;;10.25;;
4636;SDS011;2331;48.806;9.140;2022-09-12T07:08:32;15.00;;;10.82;;
4636;SDS011;2331;48.806;9.140;2022-09-12T07:11:07;15.18;;;10.90;;
4636;SDS011;2331;48.806;9.140;2022-09-12T07:13:35;15.57;;;11.45;;
4636;SDS011;2331;48.806;9.140;2022-09-12T07:16:02;12.88;;;9.57;;
4636;SDS011;2331;48.806;9.140;2022-09-12T07:18:29;14.70;;;9.10;;
4636;SDS011;2331;48.806;9.140;2022-09-12T07:20:58;12.25;;;9.43;;
4636;SDS011;2331;48.806;9.140;2022-09-12T07:23:26;13.98;;;9.30;;
4636;SDS011;2331;48.806;9.140;2022-09-12T07:25:53;10.95;;;8.57;;
4636;SDS011;2331;48.806;9.140;2022-09-12T07:28:21;12.88;;;9.50;;
4636;SDS011;2331;48.806;9.140;2022-09-12T07:30:48;14.07;;;9.50;;
4636;SDS011;2331;48.806;9.140;2022-09-12T07:33:15;14.23;;;9.27;;
4636;SDS011;2331;48.806;9.140;2022-09-12T07:35:42;11.73;;;8.75;;
4636;SDS011;2331;48.806;9.140;2022-09-12T07:38:09;11.73;;;8.70;;
4636;SDS011;2331;48.806;9.140;2022-09-12T07:40:37;13.57;;;8.75;;
4636;SDS011;2331;48.806;9.140;2022-09-12T07:43:04;10.90;;;8.43;;
4636;SDS011;2331;48.806;9.140;2022-09-12T07:45:31;12.95;;;7.25;;
4636;SDS011;2331;48.806;9.140;2022-09-12T07:47:58;9.88;;;7.60;;
4636;SDS011;2331;48.806;9.140;2022-09-12T07:50:25;9.93;;;8.40;;
4636;SDS011;2331;48.806;9.140;2022-09-12T07:52:52;11.23;;;8.63;;
4636;SDS011;2331;48.806;9.140;2022-09-12T07:55:19;10.18;;;7.75;;
4636;SDS011;2331;48.806;9.140;2022-09-12T07:57:49;10.45;;;7.85;;
4636;SDS011;2331;48.806;9.140;2022-09-12T08:00:16;9.50;;;7.82;;
4636;SDS011;2331;48.806;9.140;2022-09-12T08:02:43;9.65;;;8.35;;
4636;SDS011;2331;48.806;9.140;2022-09-12T08:05:10;11.40;;;8.68;;
4636;SDS011;2331;48.806;9.140;2022-09-12T08:07:37;9.18;;;7.97;;
4636;SDS011;2331;48.806;9.140;2022-09-12T08:10:04;10.02;;;7.43;;
4636;SDS011;2331;48.806;9.140;2022-09-12T08:12:31;13.70;;;7.75;;
4636;SDS011;2331;48.806;9.140;2022-09-12T08:15:00;9.57;;;7.40;;
4636;SDS011;2331;48.806;9.140;2022-09-12T08:17:26;10.43;;;7.70;;
4636;SDS011;2331;48.806;9.140;2022-09-12T08:19:53;12.82;;;9.35;;
4636;SDS011;2331;48.806;9.140;2022-09-12T08:22:20;12.90;;;9.45;;
4636;SDS011;2331;48.806;9.140;2022-09-12T08:24:48;16.25;;;10.10;;
4636;SDS011;2331;48.806;9.140;2022-09-12T08:27:15;15.68;;;11.18;;
4636;SDS011;2331;48.806;9.140;2022-09-12T08:29:41;18.05;;;10.20;;
4636;SDS011;2331;48.806;9.140;2022-09-12T08:32:09;15.88;;;9.38;;
4636;SDS011;2331;48.806;9.140;2022-09-12T08:34:36;13.20;;;10.23;;
4636;SDS011;2331;48.806;9.140;2022-09-12T08:37:03;11.07;;;8.48;;
4636;SDS011;2331;48.806;9.140;2022-09-12T08:39:30;9.07;;;7.22;;
4636;SDS011;2331;48.806;9.140;2022-09-12T08:41:58;11.35;;;7.30;;
4636;SDS011;2331;48.806;9.140;2022-09-12T08:44:37;9.07;;;6.93;;
4636;SDS011;2331;48.806;9.140;2022-09-12T08:47:19;8.20;;;6.13;;
4636;SDS011;2331;48.806;9.140;2022-09-12T08:49:56;7.72;;;5.30;;
4636;SDS011;2331;48.806;9.140;2022-09-12T08:52:28;9.32;;;5.65;;
4636;SDS011;2331;48.806;9.140;2022-09-12T08:54:59;7.75;;;5.45;;
4636;SDS011;2331;48.806;9.140;2022-09-12T08:57:28;6.80;;;5.78;;
4636;SDS011;2331;48.806;9.140;2022-09-12T08:59:54;7.72;;;5.03;;
4636;SDS011;2331;48.806;9.140;2022-09-12T09:02:35;10.57;;;5.25;;
4636;SDS011;2331;48.806;9.140;2022-09-12T09:05:20;6.20;;;5.18;;
4636;SDS011;2331;48.806;9.140;2022-09-12T09:10:48;7.28;;;5.70;;
4636;SDS011;2331;48.806;9.140;2022-09-12T09:13:25;7.35;;;5.18;;
4636;SDS011;2331;48.806;9.140;2022-09-12T09:16:16;7.63;;;5.28;;
4636;SDS011;2331;48.806;9.140;2022-09-12T09:18:51;6.93;;;4.70;;
4636;SDS011;2331;48.806;9.140;2022-09-12T09:21:22;10.63;;;5.20;;
4636;SDS011;2331;48.806;9.140;2022-09-12T09:23:56;8.05;;;5.53;;
4636;SDS011;2331;48.806;9.140;2022-09-12T09:26:29;7.13;;;4.50;;
4636;SDS011;2331;48.806;9.140;2022-09-12T09:29:09;8.00;;;5.15;;
4636;SDS011;2331;48.806;9.140;2022-09-12T09:31:40;4.30;;;4.07;;
4636;SDS011;2331;48.806;9.140;2022-09-12T09:34:14;4.40;;;3.67;;
4636;SDS011;2331;48.806;9.140;2022-09-12T09:36:47;5.13;;;4.30;;
4636;SDS011;2331;48.806;9.140;2022-09-12T09:39:18;5.97;;;4.60;;
4636;SDS011;2331;48.806;9.140;2022-09-12T09:41:55;5.00;;;4.23;;
4636;SDS011;2331;48.806;9.140;2022-09-12T09:44:34;4.93;;;3.90;;
4636;SDS011;2331;48.806;9.140;2022-09-12T09:47:01;4.67;;;3.97;;
4636;SDS011;2331;48.806;9.140;2022-09-12T09:49:31;4.50;;;3.50;;
4636;SDS011;2331;48.806;9.140;2022-09-12T09:52:00;6.57;;;3.43;;
4636;SDS011;2331;48.806;9.140;2022-09-12T09:54:28;5.47;;;3.57;;
4636;SDS011;2331;48.806;9.140;2022-09-12T09:57:00;4.67;;;3.80;;
4636;SDS011;2331;48.806;9.140;2022-09-12T09:59:29;6.10;;;4.00;;
4636;SDS011;2331;48.806;9.140;2022-09-12T10:01:58;4.70;;;3.33;;
4636;SDS011;2331;48.806;9.140;2022-09-12T10:04:28;4.97;;;3.37;;
4636;SDS011;2331;48.806;9.140;2022-09-12T10:06:59;5.20;;;4.00;;
4636;SDS011;2331;48.806;9.140;2022-09-12T10:09:27;5.40;;;3.80;;
4636;SDS011;2331;48.806;9.140;2022-09-12T10:11:57;5.50;;;3.57;;
4636;SDS011;2331;48.806;9.140;2022-09-12T10:14:27;4.60;;;3.20;;
4636;SDS011;2331;48.806;9.140;2022-09-12T10:16:55;6.00;;;3.93;;
4636;SDS011;2331;48.806;9.140;2022-09-12T10:19:32;4.27;;;3.13;;
4636;SDS011;2331;48.806;9.140;2022-09-12T10:22:01;3.80;;;3.30;;
4636;SDS011;2331;48.806;9.140;2022-09-12T10:24:31;4.33;;;3.30;;
4636;SDS011;2331;48.806;9.140;2022-09-12T10:27:08;4.53;;;3.47;;
4636;SDS011;2331;48.806;9.140;2022-09-12T10:29:40;4.90;;;3.00;;
4636;SDS011;2331;48.806;9.140;2022-09-12T10:32:10;4.43;;;3.27;;
4636;SDS011;2331;48.806;9.140;2022-09-12T10:34:42;4.20;;;3.00;;
4636;SDS011;2331;48.806;9.140;2022-09-12T10:37:15;5.77;;;3.10;;
4636;SDS011;2331;48.806;9.140;2022-09-12T10:39:48;3.97;;;2.90;;
4636;SDS011;2331;48.806;9.140;2022-09-12T10:42:18;7.30;;;3.30;;
4636;SDS011;2331;48.806;9.140;2022-09-12T10:45:17;4.70;;;3.23;;
4636;SDS011;2331;48.806;9.140;2022-09-12T10:47:49;4.20;;;2.87;;
4636;SDS011;2331;48.806;9.140;2022-09-12T10:50:26;4.33;;;2.50;;
4636;SDS011;2331;48.806;9.140;2022-09-12T10:53:13;4.60;;;2.80;;
4636;SDS011;2331;48.806;9.140;2022-09-12T10:55:51;4.33;;;2.97;;
4636;SDS011;2331;48.806;9.140;2022-09-12T10:58:32;3.73;;;2.80;;
4636;SDS011;2331;48.806;9.140;2022-09-12T11:01:14;3.67;;;2.67;;
4636;SDS011;2331;48.806;9.140;2022-09-12T11:03:59;4.50;;;2.60;;
4636;SDS011;2331;48.806;9.140;2022-09-12T11:06:37;5.10;;;2.80;;
4636;SDS011;2331;48.806;9.140;2022-09-12T11:09:11;3.50;;;2.37;;
4636;SDS011;2331;48.806;9.140;2022-09-12T11:11:47;3.47;;;2.50;;
4636;SDS011;2331;48.806;9.140;2022-09-12T11:14:27;4.17;;;2.20;;
4636;SDS011;2331;48.806;9.140;2022-09-12T11:17:05;3.30;;;1.90;;
4636;SDS011;2331;48.806;9.140;2022-09-12T11:19:43;4.27;;;2.40;;
4636;SDS011;2331;48.806;9.140;2022-09-12T11:22:32;4.07;;;2.63;;
4636;SDS011;2331;48.806;9.140;2022-09-12T11:25:13;4.40;;;2.57;;
4636;SDS011;2331;48.806;9.140;2022-09-12T11:27:54;3.50;;;2.27;;
4636;SDS011;2331;48.806;9.140;2022-09-12T11:30:40;5.93;;;2.60;;
4636;SDS011;2331;48.806;9.140;2022-09-12T11:33:24;4.17;;;2.30;;
4636;SDS011;2331;48.806;9.140;2022-09-12T11:36:04;2.93;;;2.00;;
4636;SDS011;2331;48.806;9.140;2022-09-12T11:38:46;3.40;;;2.23;;
4636;SDS011;2331;48.806;9.140;2022-09-12T11:41:18;2.87;;;1.80;;
4636;SDS011;2331;48.806;9.140;2022-09-12T11:43:51;4.60;;;2.20;;
4636;SDS011;2331;48.806;9.140;2022-09-12T11:46:24;3.40;;;2.00;;
4636;SDS011;2331;48.806;9.140;2022-09-12T11:48:56;4.50;;;1.57;;
4636;SDS011;2331;48.806;9.140;2022-09-12T11:51:31;3.07;;;1.37;;
4636;SDS011;2331;48.806;9.140;2022-09-12T11:54:05;2.63;;;1.57;;
4636;SDS011;2331;48.806;9.140;2022-09-12T11:56:40;2.00;;;1.10;;
4636;SDS011;2331;48.806;9.140;2022-09-12T11:59:12;2.60;;;1.47;;
4636;SDS011;2331;48.806;9.140;2022-09-12T12:01:48;2.10;;;1.20;;
4636;SDS011;2331;48.806;9.140;2022-09-12T12:04:21;3.20;;;1.87;;
4636;SDS011;2331;48.806;9.140;2022-09-12T12:06:53;2.97;;;1.40;;
4636;SDS011;2331;48.806;9.140;2022-09-12T12:09:27;2.70;;;1.70;;
4636;SDS011;2331;48.806;9.140;2022-09-12T12:11:55;3.10;;;1.50;;
4636;SDS011;2331;48.806;9.140;2022-09-12T12:14:27;5.13;;;2.13;;
4636;SDS011;2331;48.806;9.140;2022-09-12T12:17:01;21.40;;;9.33;;
4636;SDS011;2331;48.806;9.140;2022-09-12T12:19:31;2.93;;;1.57;;
4636;SDS011;2331;48.806;9.140;2022-09-12T12:22:07;3.90;;;1.67;;
4636;SDS011;2331;48.806;9.140;2022-09-12T12:24:57;9.77;;;4.40;;
4636;SDS011;2331;48.806;9.140;2022-09-12T12:45:47;2.73;;;1.60;;
4636;SDS011;2331;48.806;9.140;2022-09-12T12:48:25;2.40;;;1.43;;
4636;SDS011;2331;48.806;9.140;2022-09-12T12:53:51;3.60;;;2.13;;
4636;SDS011;2331;48.806;9.140;2022-09-12T12:56:26;3.80;;;1.70;;
4636;SDS011;2331;48.806;9.140;2022-09-12T12:58:58;2.60;;;1.50;;
4636;SDS011;2331;48.806;9.140;2022-09-12T13:01:27;2.90;;;1.40;;
4636;SDS011;2331;48.806;9.140;2022-09-12T13:03:56;2.43;;;1.50;;
4636;SDS011;2331;48.806;9.140;2022-09-12T13:06:31;2.60;;;1.40;;
4636;SDS011;2331;48.806;9.140;2022-09-12T13:09:01;2.10;;;1.40;;
4636;SDS011;2331;48.806;9.140;2022-09-12T13:11:33;2.20;;;1.23;;
4636;SDS011;2331;48.806;9.140;2022-09-12T13:14:02;4.57;;;1.37;;
4636;SDS011;2331;48.806;9.140;2022-09-12T13:16:33;2.23;;;1.53;;
4636;SDS011;2331;48.806;9.140;2022-09-12T13:19:02;2.97;;;1.67;;
4636;SDS011;2331;48.806;9.140;2022-09-12T13:21:31;6.80;;;1.60;;
4636;SDS011;2331;48.806;9.140;2022-09-12T13:23:59;4.77;;;1.37;;
4636;SDS011;2331;48.806;9.140;2022-09-12T13:26:31;2.53;;;1.40;;
4636;SDS011;2331;48.806;9.140;2022-09-12T13:29:07;2.67;;;1.20;;
4636;SDS011;2331;48.806;9.140;2022-09-12T13:31:36;2.33;;;1.17;;
4636;SDS011;2331;48.806;9.140;2022-09-12T13:34:04;2.27;;;1.27;;
4636;SDS011;2331;48.806;9.140;2022-09-12T13:36:40;2.57;;;1.30;;
4636;SDS011;2331;48.806;9.140;2022-09-12T13:39:19;2.50;;;1.50;;
4636;SDS011;2331;48.806;9.140;2022-09-12T13:44:47;2.17;;;1.17;;
4636;SDS011;2331;48.806;9.140;2022-09-12T13:47:18;2.90;;;1.37;;
4636;SDS011;2331;48.806;9.140;2022-09-12T13:49:51;2.90;;;1.43;;
4636;SDS011;2331;48.806;9.140;2022-09-12T13:52:20;1.90;;;1.20;;
4636;SDS011;2331;48.806;9.140;2022-09-12T13:54:50;2.20;;;1.33;;
4636;SDS011;2331;48.806;9.140;2022-09-12T13:57:26;2.40;;;1.17;;
4636;SDS011;2331;48.806;9.140;2022-09-12T13:59:54;2.17;;;1.10;;
4636;SDS011;2331;48.806;9.140;2022-09-12T14:02:25;3.20;;;1.30;;
4636;SDS011;2331;48.806;9.140;2022-09-12T14:04:55;2.40;;;1.30;;
4636;SDS011;2331;48.806;9.140;2022-09-12T14:07:36;2.30;;;1.03;;
4636;SDS011;2331;48.806;9.140;2022-09-12T14:10:20;3.03;;;1.33;;
4636;SDS011;2331;48.806;9.140;2022-09-12T14:12:50;3.13;;;1.37;;
4636;SDS011;2331;48.806;9.140;2022-09-12T14:15:18;2.17;;;0.90;;
4636;SDS011;2331;48.806;9.140;2022-09-12T14:17:52;2.73;;;1.37;;
4636;SDS011;2331;48.806;9.140;2022-09-12T14:20:22;2.80;;;1.20;;
4636;SDS011;2331;48.806;9.140;2022-09-12T14:22:49;2.27;;;1.10;;
4636;SDS011;2331;48.806;9.140;2022-09-12T14:25:18;2.17;;;1.33;;
4636;SDS011;2331;48.806;9.140;2022-09-12T14:27:47;2.20;;;1.10;;
4636;SDS011;2331;48.806;9.140;2022-09-12T14:30:21;2.53;;;0.90;;
4636;SDS011;2331;48.806;9.140;2022-09-12T14:33:16;2.13;;;1.13;;
4636;SDS011;2331;48.806;9.140;2022-09-12T14:35:45;2.13;;;1.13;;
4636;SDS011;2331;48.806;9.140;2022-09-12T14:38:17;2.63;;;1.07;;
4636;SDS011;2331;48.806;9.140;2022-09-12T14:40:49;2.13;;;1.20;;
4636;SDS011;2331;48.806;9.140;2022-09-12T14:43:19;2.47;;;1.27;;
4636;SDS011;2331;48.806;9.140;2022-09-12T14:45:52;3.20;;;1.13;;
4636;SDS011;2331;48.806;9.140;2022-09-12T14:48:22;2.27;;;1.33;;
4636;SDS011;2331;48.806;9.140;2022-09-12T14:50:49;2.67;;;1.10;;
4636;SDS011;2331;48.806;9.140;2022-09-12T14:53:22;2.77;;;1.20;;
4636;SDS011;2331;48.806;9.140;2022-09-12T14:55:56;2.47;;;1.23;;
4636;SDS011;2331;48.806;9.140;2022-09-12T14:58:28;3.27;;;1.10;;
4636;SDS011;2331;48.806;9.140;2022-09-12T15:00:56;2.30;;;1.40;;
4636;SDS011;2331;48.806;9.140;2022-09-12T15:03:28;2.53;;;1.20;;
4636;SDS011;2331;48.806;9.140;2022-09-12T15:05:57;1.90;;;1.17;;
4636;SDS011;2331;48.806;9.140;2022-09-12T15:08:24;2.00;;;1.10;;
4636;SDS011;2331;48.806;9.140;2022-09-12T15:10:51;2.40;;;1.30;;
4636;SDS011;2331;48.806;9.140;2022-09-12T15:13:20;3.43;;;1.23;;
4636;SDS011;2331;48.806;9.140;2022-09-12T15:15:50;1.97;;;1.17;;
4636;SDS011;2331;48.806;9.140;2022-09-12T15:18:19;2.43;;;1.30;;
4636;SDS011;2331;48.806;9.140;2022-09-12T15:20:49;4.13;;;1.47;;
4636;SDS011;2331;48.806;9.140;2022-09-12T15:23:25;3.03;;;1.20;;
4636;SDS011;2331;48.806;9.140;2022-09-12T15:25:56;3.23;;;1.37;;
4636;SDS011;2331;48.806;9.140;2022-09-12T15:28:23;1.93;;;1.13;;
4636;SDS011;2331;48.806;9.140;2022-09-12T15:30:51;1.73;;;1.03;;
4636;SDS011;2331;48.806;9.140;2022-09-12T15:33:20;2.07;;;1.10;;
4636;SDS011;2331;48.806;9.140;2022-09-12T15:35:49;2.43;;;1.13;;
4636;SDS011;2331;48.806;9.140;2022-09-12T15:38:17;1.70;;;0.90;;
4636;SDS011;2331;48.806;9.140;2022-09-12T15:40:44;2.23;;;1.10;;
4636;SDS011;2331;48.806;9.140;2022-09-12T15:43:16;2.30;;;1.10;;
4636;SDS011;2331;48.806;9.140;2022-09-12T15:45:43;2.73;;;1.00;;
4636;SDS011;2331;48.806;9.140;2022-09-12T15:48:11;2.27;;;1.20;;
4636;SDS011;2331;48.806;9.140;2022-09-12T15:50:37;2.63;;;1.00;;
4636;SDS011;2331;48.806;9.140;2022-09-12T15:53:07;2.00;;;1.23;;
4636;SDS011;2331;48.806;9.140;2022-09-12T15:55:38;1.97;;;1.20;;
4636;SDS011;2331;48.806;9.140;2022-09-12T15:58:05;2.50;;;1.33;;
4636;SDS011;2331;48.806;9.140;2022-09-12T16:00:33;2.40;;;1.17;;
4636;SDS011;2331;48.806;9.140;2022-09-12T16:03:00;1.70;;;0.90;;
4636;SDS011;2331;48.806;9.140;2022-09-12T16:05:26;2.30;;;1.30;;
4636;SDS011;2331;48.806;9.140;2022-09-12T16:07:53;2.43;;;1.47;;
4636;SDS011;2331;48.806;9.140;2022-09-12T16:10:23;2.10;;;1.20;;
4636;SDS011;2331;48.806;9.140;2022-09-12T16:12:51;2.83;;;1.63;;